sensor_id;sensor_type;location;lat;lon;timestamp;P1;durP1;ratioP1;P2;durP2;ratioP2
31298;SDS011;17927;52.350;13.402;2023-05-10T00:00:08;6.53;;;4.40;;
31298;SDS011;17927;52.350;13.402;2023-05-10T00:02:34;4.90;;;4.50;;
31298;SDS011;17927;52.350;13.402;2023-05-10T00:04:59;4.45;;;4.13;;
31298;SDS011;17927;52.350;13.402;2023-05-10T00:07:24;4.78;;;4.00;;
31298;SDS011;17927;52.350;13.402;2023-05-10T00:09:50;7.63;;;4.32;;
31298;SDS011;17927;52.350;13.402;2023-05-10T00:12:15;4.35;;;3.90;;
31298;SDS011;17927;52.350;13.402;2023-05-10T00:14:40;4.53;;;3.78;;
31298;SDS011;17927;52.350;13.402;2023-05-10T00:17:05;7.70;;;4.78;;
31298;SDS011;17927;52.350;13.402;2023-05-10T00:19:31;4.47;;;4.15;;
31298;SDS011;17927;52.350;13.402;2023-05-10T00:21:56;3.63;;;3.42;;
31298;SDS011;17927;52.350;13.402;2023-05-10T00:24:21;4.07;;;3.78;;
31298;SDS011;17927;52.350;13.402;2023-05-10T00:26:46;12.13;;;4.10;;
31298;SDS011;17927;52.350;13.402;2023-05-10T00:29:12;4.53;;;4.07;;
31298;SDS011;17927;52.350;13.402;2023-05-10T00:31:37;4.72;;;4.07;;
31298;SDS011;17927;52.350;13.402;2023-05-10T00:34:02;5.40;;;4.78;;
31298;SDS011;17927;52.350;13.402;2023-05-10T00:36:28;4.00;;;3.70;;
31298;SDS011;17927;52.350;13.402;2023-05-10T00:38:53;10.68;;;4.05;;
31298;SDS011;17927;52.350;13.402;2023-05-10T00:41:18;4.82;;;4.43;;
31298;SDS011;17927;52.350;13.402;2023-05-10T00:43:43;6.10;;;4.30;;
31298;SDS011;17927;52.350;13.402;2023-05-10T00:46:09;4.55;;;4.10;;
31298;SDS011;17927;52.350;13.402;2023-05-10T00:48:34;5.78;;;4.25;;
31298;SDS011;17927;52.350;13.402;2023-05-10T00:51:00;4.65;;;4.15;;
31298;SDS011;17927;52.350;13.402;2023-05-10T00:53:26;4.72;;;4.28;;
31298;SDS011;17927;52.350;13.402;2023-05-10T00:55:52;4.97;;;4.55;;
31298;SDS011;17927;52.350;13.402;2023-05-10T00:58:17;4.82;;;4.30;;
31298;SDS011;17927;52.350;13.402;2023-05-10T01:00:42;4.97;;;4.57;;
31298;SDS011;17927;52.350;13.402;2023-05-10T01:03:09;5.35;;;4.43;;
31298;SDS011;17927;52.350;13.402;2023-05-10T01:05:35;9.23;;;4.60;;
31298;SDS011;17927;52.350;13.402;2023-05-10T01:08:01;5.90;;;4.75;;
31298;SDS011;17927;52.350;13.402;2023-05-10T01:10:27;5.85;;;4.65;;
31298;SDS011;17927;52.350;13.402;2023-05-10T01:12:52;5.45;;;4.97;;
31298;SDS011;17927;52.350;13.402;2023-05-10T01:15:18;6.35;;;4.32;;
31298;SDS011;17927;52.350;13.402;2023-05-10T01:17:45;7.68;;;4.43;;
31298;SDS011;17927;52.350;13.402;2023-05-10T01:20:12;7.03;;;4.65;;
31298;SDS011;17927;52.350;13.402;2023-05-10T01:25:54;7.00;;;4.95;;
31298;SDS011;17927;52.350;13.402;2023-05-10T01:34:25;5.20;;;4.72;;
31298;SDS011;17927;52.350;13.402;2023-05-10T01:37:13;6.97;;;4.75;;
31298;SDS011;17927;52.350;13.402;2023-05-10T01:40:02;4.90;;;4.50;;
31298;SDS011;17927;52.350;13.402;2023-05-10T01:42:37;11.57;;;4.63;;
31298;SDS011;17927;52.350;13.402;2023-05-10T01:45:18;9.10;;;4.90;;
31298;SDS011;17927;52.350;13.402;2023-05-10T01:47:51;5.90;;;5.22;;
31298;SDS011;17927;52.350;13.402;2023-05-10T01:50:24;5.50;;;5.00;;
31298;SDS011;17927;52.350;13.402;2023-05-10T01:52:54;5.80;;;4.45;;
31298;SDS011;17927;52.350;13.402;2023-05-10T01:55:23;5.75;;;4.80;;
31298;SDS011;17927;52.350;13.402;2023-05-10T01:57:52;5.72;;;5.22;;
31298;SDS011;17927;52.350;13.402;2023-05-10T02:00:25;7.45;;;5.43;;
31298;SDS011;17927;52.350;13.402;2023-05-10T02:02:52;6.30;;;4.82;;
31298;SDS011;17927;52.350;13.402;2023-05-10T02:05:18;7.68;;;5.30;;
31298;SDS011;17927;52.350;13.402;2023-05-10T02:07:45;6.60;;;5.57;;
31298;SDS011;17927;52.350;13.402;2023-05-10T02:10:11;5.72;;;5.22;;
31298;SDS011;17927;52.350;13.402;2023-05-10T02:12:42;7.97;;;5.47;;
31298;SDS011;17927;52.350;13.402;2023-05-10T02:15:11;5.20;;;4.70;;
31298;SDS011;17927;52.350;13.402;2023-05-10T02:17:40;8.20;;;5.32;;
31298;SDS011;17927;52.350;13.402;2023-05-10T02:20:07;5.35;;;4.85;;
31298;SDS011;17927;52.350;13.402;2023-05-10T02:22:35;6.32;;;5.28;;
31298;SDS011;17927;52.350;13.402;2023-05-10T02:25:02;5.75;;;5.18;;
31298;SDS011;17927;52.350;13.402;2023-05-10T02:27:28;6.60;;;5.22;;
31298;SDS011;17927;52.350;13.402;2023-05-10T02:29:54;6.97;;;5.18;;
31298;SDS011;17927;52.350;13.402;2023-05-10T02:32:21;6.75;;;5.60;;
31298;SDS011;17927;52.350;13.402;2023-05-10T02:34:49;6.32;;;5.13;;
31298;SDS011;17927;52.350;13.402;2023-05-10T02:37:20;5.53;;;4.82;;
31298;SDS011;17927;52.350;13.402;2023-05-10T02:39:47;5.35;;;4.90;;
31298;SDS011;17927;52.350;13.402;2023-05-10T02:42:16;5.85;;;5.25;;
31298;SDS011;17927;52.350;13.402;2023-05-10T02:44:45;6.95;;;4.95;;
31298;SDS011;17927;52.350;13.402;2023-05-10T02:47:12;6.57;;;5.03;;
31298;SDS011;17927;52.350;13.402;2023-05-10T02:49:37;5.38;;;4.97;;
31298;SDS011;17927;52.350;13.402;2023-05-10T02:52:04;5.30;;;4.80;;
31298;SDS011;17927;52.350;13.402;2023-05-10T02:54:33;6.53;;;5.03;;
31298;SDS011;17927;52.350;13.402;2023-05-10T02:57:06;5.90;;;4.82;;
31298;SDS011;17927;52.350;13.402;2023-05-10T02:59:32;5.43;;;4.85;;
31298;SDS011;17927;52.350;13.402;2023-05-10T03:01:59;4.90;;;4.50;;
31298;SDS011;17927;52.350;13.402;2023-05-10T03:04:25;5.25;;;4.78;;
31298;SDS011;17927;52.350;13.402;2023-05-10T03:06:50;5.13;;;4.70;;
31298;SDS011;17927;52.350;13.402;2023-05-10T03:09:16;6.18;;;4.68;;
31298;SDS011;17927;52.350;13.402;2023-05-10T03:11:51;6.28;;;4.53;;
31298;SDS011;17927;52.350;13.402;2023-05-10T03:17:11;12.35;;;8.75;;
31298;SDS011;17927;52.350;13.402;2023-05-10T03:19:53;6.60;;;6.00;;
31298;SDS011;17927;52.350;13.402;2023-05-10T03:22:31;10.93;;;8.63;;
31298;SDS011;17927;52.350;13.402;2023-05-10T03:24:59;16.63;;;9.43;;
31298;SDS011;17927;52.350;13.402;2023-05-10T03:27:29;10.25;;;6.30;;
31298;SDS011;17927;52.350;13.402;2023-05-10T03:29:55;5.82;;;5.18;;
31298;SDS011;17927;52.350;13.402;2023-05-10T03:32:21;7.30;;;5.90;;
31298;SDS011;17927;52.350;13.402;2023-05-10T03:34:46;7.25;;;6.55;;
31298;SDS011;17927;52.350;13.402;2023-05-10T03:37:12;6.85;;;5.97;;
31298;SDS011;17927;52.350;13.402;2023-05-10T03:39:37;8.77;;;6.55;;
31298;SDS011;17927;52.350;13.402;2023-05-10T03:42:02;7.75;;;6.07;;
31298;SDS011;17927;52.350;13.402;2023-05-10T03:44:28;6.47;;;5.88;;
31298;SDS011;17927;52.350;13.402;2023-05-10T03:46:53;7.20;;;4.72;;
31298;SDS011;17927;52.350;13.402;2023-05-10T03:49:18;6.32;;;4.45;;
31298;SDS011;17927;52.350;13.402;2023-05-10T03:51:43;5.30;;;4.90;;
31298;SDS011;17927;52.350;13.402;2023-05-10T03:54:09;4.43;;;4.03;;
31298;SDS011;17927;52.350;13.402;2023-05-10T03:56:34;6.93;;;4.13;;
31298;SDS011;17927;52.350;13.402;2023-05-10T03:58:59;5.57;;;4.30;;
31298;SDS011;17927;52.350;13.402;2023-05-10T04:01:25;6.28;;;4.90;;
31298;SDS011;17927;52.350;13.402;2023-05-10T04:03:50;4.97;;;4.32;;
31298;SDS011;17927;52.350;13.402;2023-05-10T04:06:15;5.05;;;4.65;;
31298;SDS011;17927;52.350;13.402;2023-05-10T04:08:41;6.15;;;4.45;;
31298;SDS011;17927;52.350;13.402;2023-05-10T04:11:06;4.38;;;4.05;;
31298;SDS011;17927;52.350;13.402;2023-05-10T04:13:33;4.43;;;4.03;;
31298;SDS011;17927;52.350;13.402;2023-05-10T04:15:58;4.82;;;4.43;;
31298;SDS011;17927;52.350;13.402;2023-05-10T04:18:24;4.50;;;4.10;;
31298;SDS011;17927;52.350;13.402;2023-05-10T04:20:49;6.00;;;4.85;;
31298;SDS011;17927;52.350;13.402;2023-05-10T04:23:14;4.93;;;4.40;;
31298;SDS011;17927;52.350;13.402;2023-05-10T04:25:41;4.05;;;3.67;;
31298;SDS011;17927;52.350;13.402;2023-05-10T04:28:06;4.93;;;4.53;;
31298;SDS011;17927;52.350;13.402;2023-05-10T04:30:32;7.85;;;3.90;;
31298;SDS011;17927;52.350;13.402;2023-05-10T04:32:57;4.50;;;3.92;;
31298;SDS011;17927;52.350;13.402;2023-05-10T04:35:23;7.53;;;3.83;;
31298;SDS011;17927;52.350;13.402;2023-05-10T04:37:48;10.27;;;4.20;;
31298;SDS011;17927;52.350;13.402;2023-05-10T04:40:13;4.50;;;4.10;;
31298;SDS011;17927;52.350;13.402;2023-05-10T04:42:39;6.53;;;3.83;;
31298;SDS011;17927;52.350;13.402;2023-05-10T04:45:06;4.97;;;4.45;;
31298;SDS011;17927;52.350;13.402;2023-05-10T04:47:32;12.38;;;3.80;;
31298;SDS011;17927;52.350;13.402;2023-05-10T04:49:57;5.38;;;4.43;;
31298;SDS011;17927;52.350;13.402;2023-05-10T04:52:23;6.40;;;3.80;;
31298;SDS011;17927;52.350;13.402;2023-05-10T04:54:48;7.35;;;4.28;;
31298;SDS011;17927;52.350;13.402;2023-05-10T04:57:14;12.10;;;4.65;;
31298;SDS011;17927;52.350;13.402;2023-05-10T04:59:39;4.50;;;4.10;;
31298;SDS011;17927;52.350;13.402;2023-05-10T05:02:04;8.40;;;4.00;;
31298;SDS011;17927;52.350;13.402;2023-05-10T05:04:29;4.65;;;4.25;;
31298;SDS011;17927;52.350;13.402;2023-05-10T05:06:55;7.32;;;3.83;;
31298;SDS011;17927;52.350;13.402;2023-05-10T05:09:21;9.45;;;4.10;;
31298;SDS011;17927;52.350;13.402;2023-05-10T05:11:46;4.00;;;3.65;;
31298;SDS011;17927;52.350;13.402;2023-05-10T05:14:11;5.35;;;4.00;;
31298;SDS011;17927;52.350;13.402;2023-05-10T05:16:37;5.20;;;3.67;;
31298;SDS011;17927;52.350;13.402;2023-05-10T05:19:02;4.07;;;3.63;;
31298;SDS011;17927;52.350;13.402;2023-05-10T05:21:27;5.35;;;3.67;;
31298;SDS011;17927;52.350;13.402;2023-05-10T05:23:53;4.82;;;3.45;;
31298;SDS011;17927;52.350;13.402;2023-05-10T05:26:18;4.00;;;3.60;;
31298;SDS011;17927;52.350;13.402;2023-05-10T05:28:44;4.03;;;3.25;;
31298;SDS011;17927;52.350;13.402;2023-05-10T05:31:09;4.15;;;3.17;;
31298;SDS011;17927;52.350;13.402;2023-05-10T05:33:34;4.35;;;3.92;;
31298;SDS011;17927;52.350;13.402;2023-05-10T05:36:01;3.95;;;3.40;;
31298;SDS011;17927;52.350;13.402;2023-05-10T05:38:27;3.75;;;3.20;;
31298;SDS011;17927;52.350;13.402;2023-05-10T05:40:52;3.65;;;3.03;;
31298;SDS011;17927;52.350;13.402;2023-05-10T05:43:17;3.72;;;3.20;;
31298;SDS011;17927;52.350;13.402;2023-05-10T05:45:43;7.40;;;3.00;;
31298;SDS011;17927;52.350;13.402;2023-05-10T05:48:08;3.65;;;2.78;;
31298;SDS011;17927;52.350;13.402;2023-05-10T05:50:33;3.45;;;3.00;;
31298;SDS011;17927;52.350;13.402;2023-05-10T05:52:58;6.30;;;2.58;;
31298;SDS011;17927;52.350;13.402;2023-05-10T05:55:23;7.00;;;3.50;;
31298;SDS011;17927;52.350;13.402;2023-05-10T05:57:50;4.78;;;4.15;;
31298;SDS011;17927;52.350;13.402;2023-05-10T06:00:16;4.13;;;2.33;;
31298;SDS011;17927;52.350;13.402;2023-05-10T06:02:41;4.30;;;2.70;;
31298;SDS011;17927;52.350;13.402;2023-05-10T06:05:07;5.20;;;2.63;;
31298;SDS011;17927;52.350;13.402;2023-05-10T06:07:32;2.42;;;2.30;;
31298;SDS011;17927;52.350;13.402;2023-05-10T06:09:58;3.33;;;3.03;;
31298;SDS011;17927;52.350;13.402;2023-05-10T06:12:23;5.00;;;2.95;;
31298;SDS011;17927;52.350;13.402;2023-05-10T06:14:48;3.33;;;3.00;;
31298;SDS011;17927;52.350;13.402;2023-05-10T06:17:13;3.25;;;2.50;;
31298;SDS011;17927;52.350;13.402;2023-05-10T06:19:39;2.72;;;2.22;;
31298;SDS011;17927;52.350;13.402;2023-05-10T06:22:04;2.90;;;2.60;;
31298;SDS011;17927;52.350;13.402;2023-05-10T06:24:29;3.95;;;2.22;;
31298;SDS011;17927;52.350;13.402;2023-05-10T06:26:54;2.55;;;2.13;;
31298;SDS011;17927;52.350;13.402;2023-05-10T06:29:20;5.60;;;2.92;;
31298;SDS011;17927;52.350;13.402;2023-05-10T06:31:45;6.30;;;2.65;;
31298;SDS011;17927;52.350;13.402;2023-05-10T06:34:10;1.95;;;1.85;;
31298;SDS011;17927;52.350;13.402;2023-05-10T06:36:36;2.67;;;2.45;;
31298;SDS011;17927;52.350;13.402;2023-05-10T06:39:01;2.70;;;2.50;;
31298;SDS011;17927;52.350;13.402;2023-05-10T06:41:27;3.85;;;2.22;;
31298;SDS011;17927;52.350;13.402;2023-05-10T06:43:52;2.55;;;2.35;;
31298;SDS011;17927;52.350;13.402;2023-05-10T06:46:17;4.93;;;2.20;;
31298;SDS011;17927;52.350;13.402;2023-05-10T06:48:43;3.80;;;2.22;;
31298;SDS011;17927;52.350;13.402;2023-05-10T06:51:08;7.25;;;2.30;;
31298;SDS011;17927;52.350;13.402;2023-05-10T06:53:33;5.78;;;2.58;;
31298;SDS011;17927;52.350;13.402;2023-05-10T06:55:58;2.67;;;2.10;;
31298;SDS011;17927;52.350;13.402;2023-05-10T06:58:24;3.75;;;2.17;;
31298;SDS011;17927;52.350;13.402;2023-05-10T07:00:49;2.10;;;1.90;;
31298;SDS011;17927;52.350;13.402;2023-05-10T07:03:14;3.92;;;2.05;;
31298;SDS011;17927;52.350;13.402;2023-05-10T07:05:40;8.20;;;2.08;;
31298;SDS011;17927;52.350;13.402;2023-05-10T07:08:05;2.63;;;1.77;;
31298;SDS011;17927;52.350;13.402;2023-05-10T07:10:30;2.15;;;2.00;;
31298;SDS011;17927;52.350;13.402;2023-05-10T07:12:55;3.95;;;2.10;;
31298;SDS011;17927;52.350;13.402;2023-05-10T07:15:21;2.90;;;2.17;;
31298;SDS011;17927;52.350;13.402;2023-05-10T07:17:46;2.38;;;2.05;;
31298;SDS011;17927;52.350;13.402;2023-05-10T07:20:11;7.00;;;2.10;;
31298;SDS011;17927;52.350;13.402;2023-05-10T07:22:37;6.38;;;2.20;;
31298;SDS011;17927;52.350;13.402;2023-05-10T07:25:02;2.50;;;2.17;;
31298;SDS011;17927;52.350;13.402;2023-05-10T07:27:27;6.88;;;2.50;;
31298;SDS011;17927;52.350;13.402;2023-05-10T07:29:53;3.42;;;2.20;;
31298;SDS011;17927;52.350;13.402;2023-05-10T07:32:19;7.15;;;1.95;;
31298;SDS011;17927;52.350;13.402;2023-05-10T07:34:44;4.05;;;2.47;;
31298;SDS011;17927;52.350;13.402;2023-05-10T07:37:10;2.25;;;1.75;;
31298;SDS011;17927;52.350;13.402;2023-05-10T07:39:35;2.53;;;2.30;;
31298;SDS011;17927;52.350;13.402;2023-05-10T07:42:00;2.40;;;2.20;;
31298;SDS011;17927;52.350;13.402;2023-05-10T07:44:25;2.88;;;2.35;;
31298;SDS011;17927;52.350;13.402;2023-05-10T07:46:51;5.57;;;2.35;;
31298;SDS011;17927;52.350;13.402;2023-05-10T07:49:16;3.60;;;2.35;;
31298;SDS011;17927;52.350;13.402;2023-05-10T07:51:42;2.72;;;2.10;;
31298;SDS011;17927;52.350;13.402;2023-05-10T07:54:07;5.80;;;2.03;;
31298;SDS011;17927;52.350;13.402;2023-05-10T07:56:32;2.20;;;2.00;;
31298;SDS011;17927;52.350;13.402;2023-05-10T07:58:58;8.02;;;2.45;;
31298;SDS011;17927;52.350;13.402;2023-05-10T08:01:24;3.85;;;2.03;;
31298;SDS011;17927;52.350;13.402;2023-05-10T08:03:50;2.63;;;2.03;;
31298;SDS011;17927;52.350;13.402;2023-05-10T08:06:18;2.20;;;2.10;;
31298;SDS011;17927;52.350;13.402;2023-05-10T08:08:47;8.82;;;2.28;;
31298;SDS011;17927;52.350;13.402;2023-05-10T08:11:18;2.63;;;2.10;;
31298;SDS011;17927;52.350;13.402;2023-05-10T08:13:44;3.63;;;2.17;;
31298;SDS011;17927;52.350;13.402;2023-05-10T08:16:10;2.58;;;2.00;;
31298;SDS011;17927;52.350;13.402;2023-05-10T08:18:35;3.80;;;2.20;;
31298;SDS011;17927;52.350;13.402;2023-05-10T08:21:01;3.92;;;2.08;;
31298;SDS011;17927;52.350;13.402;2023-05-10T08:23:26;4.22;;;1.98;;
31298;SDS011;17927;52.350;13.402;2023-05-10T08:25:51;9.98;;;1.80;;
31298;SDS011;17927;52.350;13.402;2023-05-10T08:28:16;2.00;;;1.90;;
31298;SDS011;17927;52.350;13.402;2023-05-10T08:30:42;2.13;;;2.03;;
31298;SDS011;17927;52.350;13.402;2023-05-10T08:33:07;2.20;;;2.10;;
31298;SDS011;17927;52.350;13.402;2023-05-10T08:35:32;2.17;;;1.98;;
31298;SDS011;17927;52.350;13.402;2023-05-10T08:37:59;2.60;;;2.38;;
31298;SDS011;17927;52.350;13.402;2023-05-10T08:40:25;8.88;;;3.05;;
31298;SDS011;17927;52.350;13.402;2023-05-10T08:42:55;6.07;;;2.40;;
31298;SDS011;17927;52.350;13.402;2023-05-10T08:45:27;2.45;;;2.20;;
31298;SDS011;17927;52.350;13.402;2023-05-10T08:47:57;6.72;;;2.25;;
31298;SDS011;17927;52.350;13.402;2023-05-10T08:50:27;2.92;;;2.70;;
31298;SDS011;17927;52.350;13.402;2023-05-10T08:52:52;2.72;;;1.95;;
31298;SDS011;17927;52.350;13.402;2023-05-10T08:55:22;2.50;;;2.30;;
31298;SDS011;17927;52.350;13.402;2023-05-10T08:57:49;4.95;;;1.98;;
31298;SDS011;17927;52.350;13.402;2023-05-10T09:00:14;5.07;;;2.17;;
31298;SDS011;17927;52.350;13.402;2023-05-10T09:02:41;3.75;;;2.03;;
31298;SDS011;17927;52.350;13.402;2023-05-10T09:05:07;2.30;;;2.20;;
31298;SDS011;17927;52.350;13.402;2023-05-10T09:07:33;7.82;;;2.22;;
31298;SDS011;17927;52.350;13.402;2023-05-10T09:09:59;2.75;;;2.53;;
31298;SDS011;17927;52.350;13.402;2023-05-10T09:12:25;1.88;;;1.77;;
31298;SDS011;17927;52.350;13.402;2023-05-10T09:14:50;2.78;;;1.88;;
31298;SDS011;17927;52.350;13.402;2023-05-10T09:17:17;3.65;;;2.00;;
31298;SDS011;17927;52.350;13.402;2023-05-10T09:19:42;2.20;;;2.00;;
31298;SDS011;17927;52.350;13.402;2023-05-10T09:22:09;2.55;;;2.35;;
31298;SDS011;17927;52.350;13.402;2023-05-10T09:24:35;2.85;;;1.95;;
31298;SDS011;17927;52.350;13.402;2023-05-10T09:27:01;8.60;;;2.08;;
31298;SDS011;17927;52.350;13.402;2023-05-10T09:29:38;3.67;;;2.30;;
31298;SDS011;17927;52.350;13.402;2023-05-10T09:32:04;3.03;;;2.42;;
31298;SDS011;17927;52.350;13.402;2023-05-10T09:34:30;11.80;;;2.22;;
31298;SDS011;17927;52.350;13.402;2023-05-10T09:36:57;2.30;;;2.05;;
31298;SDS011;17927;52.350;13.402;2023-05-10T09:39:38;3.53;;;2.05;;
31298;SDS011;17927;52.350;13.402;2023-05-10T09:42:04;2.42;;;2.20;;
31298;SDS011;17927;52.350;13.402;2023-05-10T09:44:31;2.72;;;2.30;;
31298;SDS011;17927;52.350;13.402;2023-05-10T09:46:58;2.40;;;2.20;;
31298;SDS011;17927;52.350;13.402;2023-05-10T09:49:23;2.30;;;1.88;;
31298;SDS011;17927;52.350;13.402;2023-05-10T09:52:07;4.15;;;2.20;;
31298;SDS011;17927;52.350;13.402;2023-05-10T09:54:33;2.20;;;1.92;;
31298;SDS011;17927;52.350;13.402;2023-05-10T09:56:59;1.83;;;1.73;;
31298;SDS011;17927;52.350;13.402;2023-05-10T09:59:26;1.70;;;1.60;;
31298;SDS011;17927;52.350;13.402;2023-05-10T10:01:53;1.80;;;1.60;;
31298;SDS011;17927;52.350;13.402;2023-05-10T10:04:21;2.25;;;2.05;;
31298;SDS011;17927;52.350;13.402;2023-05-10T10:06:46;2.90;;;1.85;;
31298;SDS011;17927;52.350;13.402;2023-05-10T10:09:23;3.67;;;1.73;;
31298;SDS011;17927;52.350;13.402;2023-05-10T10:11:49;3.45;;;2.22;;
31298;SDS011;17927;52.350;13.402;2023-05-10T10:14:14;3.47;;;2.28;;
31298;SDS011;17927;52.350;13.402;2023-05-10T10:16:39;4.93;;;2.33;;
31298;SDS011;17927;52.350;13.402;2023-05-10T10:19:05;1.90;;;1.80;;
31298;SDS011;17927;52.350;13.402;2023-05-10T10:21:31;3.80;;;2.50;;
31298;SDS011;17927;52.350;13.402;2023-05-10T10:23:56;13.60;;;3.03;;
31298;SDS011;17927;52.350;13.402;2023-05-10T10:26:21;4.65;;;2.40;;
31298;SDS011;17927;52.350;13.402;2023-05-10T10:31:26;6.25;;;2.30;;
31298;SDS011;17927;52.350;13.402;2023-05-10T10:34:01;2.42;;;2.22;;
31298;SDS011;17927;52.350;13.402;2023-05-10T10:36:30;6.75;;;2.17;;
31298;SDS011;17927;52.350;13.402;2023-05-10T10:38:58;3.42;;;2.17;;
31298;SDS011;17927;52.350;13.402;2023-05-10T10:41:35;4.55;;;1.80;;
31298;SDS011;17927;52.350;13.402;2023-05-10T10:47:10;1.83;;;1.73;;
31298;SDS011;17927;52.350;13.402;2023-05-10T10:50:02;2.10;;;1.63;;
31298;SDS011;17927;52.350;13.402;2023-05-10T10:52:31;4.78;;;1.80;;
31298;SDS011;17927;52.350;13.402;2023-05-10T10:57:42;4.53;;;2.22;;
31298;SDS011;17927;52.350;13.402;2023-05-10T11:05:38;6.45;;;1.92;;
31298;SDS011;17927;52.350;13.402;2023-05-10T11:13:30;1.67;;;1.55;;
31298;SDS011;17927;52.350;13.402;2023-05-10T11:15:57;1.60;;;1.50;;
31298;SDS011;17927;52.350;13.402;2023-05-10T11:18:25;1.80;;;1.70;;
31298;SDS011;17927;52.350;13.402;2023-05-10T11:20:56;1.77;;;1.67;;
31298;SDS011;17927;52.350;13.402;2023-05-10T11:23:23;1.95;;;1.77;;
31298;SDS011;17927;52.350;13.402;2023-05-10T11:25:49;2.38;;;1.77;;
31298;SDS011;17927;52.350;13.402;2023-05-10T11:28:16;1.70;;;1.60;;
31298;SDS011;17927;52.350;13.402;2023-05-10T11:30:43;6.88;;;1.52;;
31298;SDS011;17927;52.350;13.402;2023-05-10T11:33:09;1.60;;;1.48;;
31298;SDS011;17927;52.350;13.402;2023-05-10T11:35:39;7.15;;;2.55;;
31298;SDS011;17927;52.350;13.402;2023-05-10T11:38:08;2.78;;;1.80;;
31298;SDS011;17927;52.350;13.402;2023-05-10T11:40:35;5.65;;;2.20;;
31298;SDS011;17927;52.350;13.402;2023-05-10T11:43:00;3.38;;;1.90;;
31298;SDS011;17927;52.350;13.402;2023-05-10T11:45:26;6.22;;;1.90;;
31298;SDS011;17927;52.350;13.402;2023-05-10T11:47:53;5.18;;;1.83;;
31298;SDS011;17927;52.350;13.402;2023-05-10T11:50:19;3.85;;;2.00;;
31298;SDS011;17927;52.350;13.402;2023-05-10T11:52:44;3.42;;;1.67;;
31298;SDS011;17927;52.350;13.402;2023-05-10T11:55:09;1.90;;;1.45;;
31298;SDS011;17927;52.350;13.402;2023-05-10T11:57:35;3.85;;;1.90;;
31298;SDS011;17927;52.350;13.402;2023-05-10T12:00:03;2.00;;;1.70;;
31298;SDS011;17927;52.350;13.402;2023-05-10T12:02:29;3.95;;;1.83;;
31298;SDS011;17927;52.350;13.402;2023-05-10T12:04:54;1.40;;;1.30;;
31298;SDS011;17927;52.350;13.402;2023-05-10T12:07:20;2.58;;;1.92;;
31298;SDS011;17927;52.350;13.402;2023-05-10T12:12:37;4.13;;;1.65;;
31298;SDS011;17927;52.350;13.402;2023-05-10T12:15:10;6.80;;;2.58;;
31298;SDS011;17927;52.350;13.402;2023-05-10T12:17:43;4.28;;;1.52;;
31298;SDS011;17927;52.350;13.402;2023-05-10T12:20:15;1.65;;;1.42;;
31298;SDS011;17927;52.350;13.402;2023-05-10T12:22:44;7.82;;;1.77;;
31298;SDS011;17927;52.350;13.402;2023-05-10T12:25:11;2.95;;;1.67;;
31298;SDS011;17927;52.350;13.402;2023-05-10T12:27:36;6.18;;;1.58;;
31298;SDS011;17927;52.350;13.402;2023-05-10T12:30:02;2.22;;;1.48;;
31298;SDS011;17927;52.350;13.402;2023-05-10T12:32:37;6.90;;;1.58;;
31298;SDS011;17927;52.350;13.402;2023-05-10T12:35:06;2.05;;;1.70;;
31298;SDS011;17927;52.350;13.402;2023-05-10T12:37:31;2.20;;;1.30;;
31298;SDS011;17927;52.350;13.402;2023-05-10T12:40:00;4.13;;;1.38;;
31298;SDS011;17927;52.350;13.402;2023-05-10T12:42:26;3.60;;;1.83;;
31298;SDS011;17927;52.350;13.402;2023-05-10T12:44:58;2.58;;;1.80;;
31298;SDS011;17927;52.350;13.402;2023-05-10T12:47:23;5.22;;;1.33;;
31298;SDS011;17927;52.350;13.402;2023-05-10T12:49:48;2.03;;;1.58;;
31298;SDS011;17927;52.350;13.402;2023-05-10T12:52:14;3.33;;;1.80;;
31298;SDS011;17927;52.350;13.402;2023-05-10T12:54:39;5.85;;;1.48;;
31298;SDS011;17927;52.350;13.402;2023-05-10T12:57:04;3.63;;;1.80;;
31298;SDS011;17927;52.350;13.402;2023-05-10T12:59:29;1.52;;;1.15;;
31298;SDS011;17927;52.350;13.402;2023-05-10T13:01:55;1.50;;;1.40;;
31298;SDS011;17927;52.350;13.402;2023-05-10T13:04:20;3.17;;;1.60;;
31298;SDS011;17927;52.350;13.402;2023-05-10T13:06:45;2.07;;;1.50;;
31298;SDS011;17927;52.350;13.402;2023-05-10T13:09:10;2.50;;;1.43;;
31298;SDS011;17927;52.350;13.402;2023-05-10T13:11:35;1.60;;;1.33;;
31298;SDS011;17927;52.350;13.402;2023-05-10T13:14:01;1.60;;;1.50;;
31298;SDS011;17927;52.350;13.402;2023-05-10T13:16:28;3.72;;;1.55;;
31298;SDS011;17927;52.350;13.402;2023-05-10T13:18:53;4.72;;;1.60;;
31298;SDS011;17927;52.350;13.402;2023-05-10T13:21:18;1.80;;;1.30;;
31298;SDS011;17927;52.350;13.402;2023-05-10T13:23:43;1.43;;;1.33;;
31298;SDS011;17927;52.350;13.402;2023-05-10T13:26:09;3.13;;;1.42;;
31298;SDS011;17927;52.350;13.402;2023-05-10T13:28:34;9.40;;;1.58;;
31298;SDS011;17927;52.350;13.402;2023-05-10T13:30:59;7.82;;;1.60;;
31298;SDS011;17927;52.350;13.402;2023-05-10T13:33:25;1.77;;;1.58;;
31298;SDS011;17927;52.350;13.402;2023-05-10T13:35:50;1.70;;;1.60;;
31298;SDS011;17927;52.350;13.402;2023-05-10T13:38:15;1.40;;;1.30;;
31298;SDS011;17927;52.350;13.402;2023-05-10T13:40:40;6.37;;;1.50;;
31298;SDS011;17927;52.350;13.402;2023-05-10T13:43:06;3.60;;;1.43;;
31298;SDS011;17927;52.350;13.402;2023-05-10T13:45:31;5.60;;;1.23;;
31298;SDS011;17927;52.350;13.402;2023-05-10T13:47:56;4.43;;;1.40;;
31298;SDS011;17927;52.350;13.402;2023-05-10T13:50:22;1.33;;;1.23;;
31298;SDS011;17927;52.350;13.402;2023-05-10T13:52:47;1.97;;;1.73;;
31298;SDS011;17927;52.350;13.402;2023-05-10T13:55:12;3.83;;;1.30;;
31298;SDS011;17927;52.350;13.402;2023-05-10T13:57:38;4.15;;;1.40;;
31298;SDS011;17927;52.350;13.402;2023-05-10T14:00:03;1.30;;;1.10;;
31298;SDS011;17927;52.350;13.402;2023-05-10T14:02:29;1.23;;;1.13;;
31298;SDS011;17927;52.350;13.402;2023-05-10T14:04:55;1.27;;;1.25;;
31298;SDS011;17927;52.350;13.402;2023-05-10T14:07:20;5.10;;;1.80;;
31298;SDS011;17927;52.350;13.402;2023-05-10T14:09:45;1.95;;;1.30;;
31298;SDS011;17927;52.350;13.402;2023-05-10T14:12:10;1.50;;;1.40;;
31298;SDS011;17927;52.350;13.402;2023-05-10T14:14:36;1.15;;;1.10;;
31298;SDS011;17927;52.350;13.402;2023-05-10T14:17:01;1.45;;;1.35;;
31298;SDS011;17927;52.350;13.402;2023-05-10T14:19:27;4.68;;;1.42;;
31298;SDS011;17927;52.350;13.402;2023-05-10T14:21:52;1.42;;;1.20;;
31298;SDS011;17927;52.350;13.402;2023-05-10T14:24:17;2.13;;;1.10;;
31298;SDS011;17927;52.350;13.402;2023-05-10T14:26:43;1.60;;;1.30;;
31298;SDS011;17927;52.350;13.402;2023-05-10T14:29:08;1.67;;;1.57;;
31298;SDS011;17927;52.350;13.402;2023-05-10T14:31:33;4.82;;;3.33;;
31298;SDS011;17927;52.350;13.402;2023-05-10T14:33:58;4.47;;;2.90;;
31298;SDS011;17927;52.350;13.402;2023-05-10T14:36:24;8.10;;;2.10;;
31298;SDS011;17927;52.350;13.402;2023-05-10T14:38:49;3.38;;;1.90;;
31298;SDS011;17927;52.350;13.402;2023-05-10T14:41:15;3.08;;;1.77;;
31298;SDS011;17927;52.350;13.402;2023-05-10T14:43:42;4.20;;;3.00;;
31298;SDS011;17927;52.350;13.402;2023-05-10T14:46:07;1.98;;;1.80;;
31298;SDS011;17927;52.350;13.402;2023-05-10T14:48:33;6.88;;;2.15;;
31298;SDS011;17927;52.350;13.402;2023-05-10T14:50:58;1.85;;;1.75;;
31298;SDS011;17927;52.350;13.402;2023-05-10T14:53:24;2.83;;;1.63;;
31298;SDS011;17927;52.350;13.402;2023-05-10T14:55:49;2.53;;;1.88;;
31298;SDS011;17927;52.350;13.402;2023-05-10T14:58:14;2.33;;;2.10;;
31298;SDS011;17927;52.350;13.402;2023-05-10T15:00:40;2.53;;;2.38;;
31298;SDS011;17927;52.350;13.402;2023-05-10T15:03:05;2.67;;;2.47;;